sensor_id;sensor_type;location;lat;lon;timestamp;P1;durP1;ratioP1;P2;durP2;ratioP2
59042;SDS011;44826;51.596;5.624;2024-03-23T00:53:45;11.23;;;4.50;;
59042;SDS011;44826;51.596;5.624;2024-03-23T00:56:10;12.85;;;5.20;;
59042;SDS011;44826;51.596;5.624;2024-03-23T00:58:36;14.25;;;6.18;;
59042;SDS011;44826;51.596;5.624;2024-03-23T01:01:01;12.50;;;5.45;;
59042;SDS011;44826;51.596;5.624;2024-03-23T01:03:28;10.45;;;5.45;;
59042;SDS011;44826;51.596;5.624;2024-03-23T01:05:54;9.05;;;4.60;;
59042;SDS011;44826;51.596;5.624;2024-03-23T01:08:19;11.88;;;5.00;;
59042;SDS011;44826;51.596;5.624;2024-03-23T01:10:57;10.20;;;4.45;;
59042;SDS011;44826;51.596;5.624;2024-03-23T01:13:24;8.98;;;3.97;;
59042;SDS011;44826;51.596;5.624;2024-03-23T01:15:49;9.13;;;4.20;;
59042;SDS011;44826;51.596;5.624;2024-03-23T01:18:16;10.27;;;4.13;;
59042;SDS011;44826;51.596;5.624;2024-03-23T01:20:42;10.00;;;3.80;;
59042;SDS011;44826;51.596;5.624;2024-03-23T01:23:08;8.68;;;3.28;;
59042;SDS011;44826;51.596;5.624;2024-03-23T01:25:33;8.02;;;2.90;;
59042;SDS011;44826;51.596;5.624;2024-03-23T01:27:58;8.30;;;2.67;;
59042;SDS011;44826;51.596;5.624;2024-03-23T01:30:24;7.55;;;2.92;;
59042;SDS011;44826;51.596;5.624;2024-03-23T01:32:49;7.22;;;2.22;;
59042;SDS011;44826;51.596;5.624;2024-03-23T01:35:14;4.63;;;1.98;;
59042;SDS011;44826;51.596;5.624;2024-03-23T01:37:39;7.78;;;2.17;;
59042;SDS011;44826;51.596;5.624;2024-03-23T01:40:05;5.70;;;1.95;;
59042;SDS011;44826;51.596;5.624;2024-03-23T01:42:31;4.45;;;1.90;;
59042;SDS011;44826;51.596;5.624;2024-03-23T01:44:56;4.60;;;2.10;;
59042;SDS011;44826;51.596;5.624;2024-03-23T01:47:21;5.20;;;1.80;;
59042;SDS011;44826;51.596;5.624;2024-03-23T01:49:47;5.97;;;1.88;;
59042;SDS011;44826;51.596;5.624;2024-03-23T01:52:12;6.40;;;2.22;;
59042;SDS011;44826;51.596;5.624;2024-03-23T01:54:38;5.78;;;1.90;;
59042;SDS011;44826;51.596;5.624;2024-03-23T01:57:04;6.28;;;1.98;;
59042;SDS011;44826;51.596;5.624;2024-03-23T01:59:29;8.07;;;1.83;;
59042;SDS011;44826;51.596;5.624;2024-03-23T02:01:55;6.65;;;1.85;;
59042;SDS011;44826;51.596;5.624;2024-03-23T02:04:21;7.35;;;2.33;;
59042;SDS011;44826;51.596;5.624;2024-03-23T02:06:46;7.93;;;2.00;;
59042;SDS011;44826;51.596;5.624;2024-03-23T02:09:11;5.25;;;1.80;;
59042;SDS011;44826;51.596;5.624;2024-03-23T02:11:37;7.72;;;1.83;;
59042;SDS011;44826;51.596;5.624;2024-03-23T02:14:02;7.28;;;1.77;;
59042;SDS011;44826;51.596;5.624;2024-03-23T02:16:27;6.32;;;2.03;;
59042;SDS011;44826;51.596;5.624;2024-03-23T02:18:53;4.85;;;2.00;;
59042;SDS011;44826;51.596;5.624;2024-03-23T02:21:18;5.95;;;2.00;;
59042;SDS011;44826;51.596;5.624;2024-03-23T02:23:44;6.55;;;1.98;;
59042;SDS011;44826;51.596;5.624;2024-03-23T02:26:09;6.70;;;2.20;;
59042;SDS011;44826;51.596;5.624;2024-03-23T02:28:34;7.13;;;2.10;;
59042;SDS011;44826;51.596;5.624;2024-03-23T02:31:00;6.65;;;2.70;;
59042;SDS011;44826;51.596;5.624;2024-03-23T02:33:26;8.68;;;2.58;;
59042;SDS011;44826;51.596;5.624;2024-03-23T02:35:55;5.95;;;2.67;;
59042;SDS011;44826;51.596;5.624;2024-03-23T02:38:21;6.47;;;2.42;;
59042;SDS011;44826;51.596;5.624;2024-03-23T02:40:46;7.30;;;2.47;;
59042;SDS011;44826;51.596;5.624;2024-03-23T02:43:12;5.78;;;2.30;;
59042;SDS011;44826;51.596;5.624;2024-03-23T02:45:37;7.88;;;2.58;;
59042;SDS011;44826;51.596;5.624;2024-03-23T02:48:02;6.05;;;2.50;;
59042;SDS011;44826;51.596;5.624;2024-03-23T02:50:28;6.38;;;2.38;;
59042;SDS011;44826;51.596;5.624;2024-03-23T02:52:54;8.90;;;3.03;;
59042;SDS011;44826;51.596;5.624;2024-03-23T02:55:19;9.73;;;2.63;;
59042;SDS011;44826;51.596;5.624;2024-03-23T02:57:44;7.88;;;2.60;;
59042;SDS011;44826;51.596;5.624;2024-03-23T03:00:10;7.40;;;2.30;;
59042;SDS011;44826;51.596;5.624;2024-03-23T03:02:36;6.60;;;2.45;;
59042;SDS011;44826;51.596;5.624;2024-03-23T03:05:02;9.52;;;2.58;;
59042;SDS011;44826;51.596;5.624;2024-03-23T03:07:29;6.53;;;2.53;;
59042;SDS011;44826;51.596;5.624;2024-03-23T03:09:55;6.25;;;2.25;;
59042;SDS011;44826;51.596;5.624;2024-03-23T03:12:20;8.55;;;2.65;;
59042;SDS011;44826;51.596;5.624;2024-03-23T03:14:46;7.35;;;2.33;;
59042;SDS011;44826;51.596;5.624;2024-03-23T03:17:11;6.30;;;2.33;;
59042;SDS011;44826;51.596;5.624;2024-03-23T03:19:36;6.22;;;2.20;;
59042;SDS011;44826;51.596;5.624;2024-03-23T03:22:02;6.50;;;2.38;;
59042;SDS011;44826;51.596;5.624;2024-03-23T03:24:29;7.90;;;2.42;;
59042;SDS011;44826;51.596;5.624;2024-03-23T03:26:55;8.50;;;2.70;;
59042;SDS011;44826;51.596;5.624;2024-03-23T03:29:20;5.82;;;2.30;;
59042;SDS011;44826;51.596;5.624;2024-03-23T03:31:45;8.70;;;2.47;;
59042;SDS011;44826;51.596;5.624;2024-03-23T03:34:11;5.13;;;2.00;;
59042;SDS011;44826;51.596;5.624;2024-03-23T03:36:36;9.60;;;2.53;;
59042;SDS011;44826;51.596;5.624;2024-03-23T03:39:02;5.43;;;2.40;;
59042;SDS011;44826;51.596;5.624;2024-03-23T03:41:31;8.73;;;2.75;;
59042;SDS011;44826;51.596;5.624;2024-03-23T03:43:56;7.25;;;2.38;;
59042;SDS011;44826;51.596;5.624;2024-03-23T03:46:26;7.25;;;2.13;;
59042;SDS011;44826;51.596;5.624;2024-03-23T03:48:51;5.95;;;2.25;;
59042;SDS011;44826;51.596;5.624;2024-03-23T03:51:17;6.45;;;2.08;;
59042;SDS011;44826;51.596;5.624;2024-03-23T03:53:42;6.97;;;2.08;;
59042;SDS011;44826;51.596;5.624;2024-03-23T03:56:07;7.30;;;2.25;;
59042;SDS011;44826;51.596;5.624;2024-03-23T03:58:33;7.32;;;2.28;;
59042;SDS011;44826;51.596;5.624;2024-03-23T04:00:58;6.22;;;2.25;;
59042;SDS011;44826;51.596;5.624;2024-03-23T04:03:23;4.30;;;2.00;;
59042;SDS011;44826;51.596;5.624;2024-03-23T04:05:52;7.18;;;2.28;;
59042;SDS011;44826;51.596;5.624;2024-03-23T04:08:19;7.88;;;2.03;;
59042;SDS011;44826;51.596;5.624;2024-03-23T04:10:44;7.95;;;2.35;;
59042;SDS011;44826;51.596;5.624;2024-03-23T04:13:10;8.00;;;2.13;;
59042;SDS011;44826;51.596;5.624;2024-03-23T04:15:36;7.13;;;2.20;;
59042;SDS011;44826;51.596;5.624;2024-03-23T04:18:02;6.35;;;2.05;;
59042;SDS011;44826;51.596;5.624;2024-03-23T04:20:27;6.35;;;2.10;;
59042;SDS011;44826;51.596;5.624;2024-03-23T04:22:52;5.75;;;2.10;;
59042;SDS011;44826;51.596;5.624;2024-03-23T04:25:18;5.07;;;1.80;;
59042;SDS011;44826;51.596;5.624;2024-03-23T04:27:44;6.80;;;1.83;;
59042;SDS011;44826;51.596;5.624;2024-03-23T04:30:10;7.60;;;2.10;;
59042;SDS011;44826;51.596;5.624;2024-03-23T04:32:39;4.68;;;1.83;;
59042;SDS011;44826;51.596;5.624;2024-03-23T04:35:05;6.55;;;1.70;;
59042;SDS011;44826;51.596;5.624;2024-03-23T04:37:31;5.13;;;1.75;;
59042;SDS011;44826;51.596;5.624;2024-03-23T04:40:00;6.10;;;1.70;;
59042;SDS011;44826;51.596;5.624;2024-03-23T04:42:26;5.70;;;1.60;;
59042;SDS011;44826;51.596;5.624;2024-03-23T04:44:52;8.35;;;1.90;;
59042;SDS011;44826;51.596;5.624;2024-03-23T04:47:18;5.97;;;1.48;;
59042;SDS011;44826;51.596;5.624;2024-03-23T04:49:43;6.00;;;1.63;;
59042;SDS011;44826;51.596;5.624;2024-03-23T04:52:08;5.50;;;1.80;;
59042;SDS011;44826;51.596;5.624;2024-03-23T04:54:34;5.97;;;1.52;;
59042;SDS011;44826;51.596;5.624;2024-03-23T04:56:59;6.28;;;1.52;;
59042;SDS011;44826;51.596;5.624;2024-03-23T04:59:25;4.78;;;1.70;;
59042;SDS011;44826;51.596;5.624;2024-03-23T05:01:50;6.65;;;1.50;;
59042;SDS011;44826;51.596;5.624;2024-03-23T05:04:15;4.97;;;1.83;;
59042;SDS011;44826;51.596;5.624;2024-03-23T05:06:40;6.18;;;1.75;;
59042;SDS011;44826;51.596;5.624;2024-03-23T05:09:06;6.40;;;1.85;;
59042;SDS011;44826;51.596;5.624;2024-03-23T05:11:32;7.15;;;2.00;;
59042;SDS011;44826;51.596;5.624;2024-03-23T05:13:58;4.88;;;2.10;;
59042;SDS011;44826;51.596;5.624;2024-03-23T05:16:23;8.15;;;1.98;;
59042;SDS011;44826;51.596;5.624;2024-03-23T05:18:48;5.03;;;1.85;;
59042;SDS011;44826;51.596;5.624;2024-03-23T05:21:14;9.43;;;2.17;;
59042;SDS011;44826;51.596;5.624;2024-03-23T05:23:39;7.25;;;2.30;;
59042;SDS011;44826;51.596;5.624;2024-03-23T05:26:04;8.18;;;2.10;;
59042;SDS011;44826;51.596;5.624;2024-03-23T05:28:30;7.43;;;2.20;;
59042;SDS011;44826;51.596;5.624;2024-03-23T05:30:55;5.15;;;2.28;;
59042;SDS011;44826;51.596;5.624;2024-03-23T05:33:22;5.63;;;2.40;;
59042;SDS011;44826;51.596;5.624;2024-03-23T05:35:55;10.75;;;2.63;;
59042;SDS011;44826;51.596;5.624;2024-03-23T05:38:22;6.93;;;2.38;;
59042;SDS011;44826;51.596;5.624;2024-03-23T05:40:56;8.05;;;2.55;;
59042;SDS011;44826;51.596;5.624;2024-03-23T05:43:23;7.05;;;2.67;;
59042;SDS011;44826;51.596;5.624;2024-03-23T05:45:55;7.00;;;2.92;;
59042;SDS011;44826;51.596;5.624;2024-03-23T05:48:21;7.47;;;2.90;;
59042;SDS011;44826;51.596;5.624;2024-03-23T05:50:47;8.10;;;2.90;;
59042;SDS011;44826;51.596;5.624;2024-03-23T05:53:12;9.70;;;3.50;;
59042;SDS011;44826;51.596;5.624;2024-03-23T05:55:38;8.90;;;3.13;;
59042;SDS011;44826;51.596;5.624;2024-03-23T05:58:03;8.55;;;3.50;;
59042;SDS011;44826;51.596;5.624;2024-03-23T06:00:29;8.88;;;3.28;;
59042;SDS011;44826;51.596;5.624;2024-03-23T06:02:54;9.52;;;3.47;;
59042;SDS011;44826;51.596;5.624;2024-03-23T06:05:19;8.50;;;3.25;;
59042;SDS011;44826;51.596;5.624;2024-03-23T06:07:45;9.60;;;3.45;;
59042;SDS011;44826;51.596;5.624;2024-03-23T06:10:10;14.55;;;3.67;;
59042;SDS011;44826;51.596;5.624;2024-03-23T06:12:35;10.63;;;3.60;;
59042;SDS011;44826;51.596;5.624;2024-03-23T06:15:01;9.00;;;3.35;;
59042;SDS011;44826;51.596;5.624;2024-03-23T06:17:26;11.52;;;3.15;;
59042;SDS011;44826;51.596;5.624;2024-03-23T06:19:52;8.90;;;3.55;;
59042;SDS011;44826;51.596;5.624;2024-03-23T06:22:17;9.50;;;3.30;;
59042;SDS011;44826;51.596;5.624;2024-03-23T06:24:42;9.48;;;3.50;;
59042;SDS011;44826;51.596;5.624;2024-03-23T06:27:09;7.90;;;3.05;;
59042;SDS011;44826;51.596;5.624;2024-03-23T06:29:34;8.85;;;3.30;;
59042;SDS011;44826;51.596;5.624;2024-03-23T06:32:01;8.07;;;3.00;;
59042;SDS011;44826;51.596;5.624;2024-03-23T06:34:26;10.07;;;3.35;;
59042;SDS011;44826;51.596;5.624;2024-03-23T06:36:52;12.23;;;3.42;;
59042;SDS011;44826;51.596;5.624;2024-03-23T06:39:17;8.65;;;3.25;;
59042;SDS011;44826;51.596;5.624;2024-03-23T06:41:44;10.32;;;3.47;;
59042;SDS011;44826;51.596;5.624;2024-03-23T06:44:17;12.73;;;3.50;;
59042;SDS011;44826;51.596;5.624;2024-03-23T06:46:42;7.55;;;3.17;;
59042;SDS011;44826;51.596;5.624;2024-03-23T06:49:07;6.72;;;2.78;;
59042;SDS011;44826;51.596;5.624;2024-03-23T06:51:33;7.63;;;3.10;;
59042;SDS011;44826;51.596;5.624;2024-03-23T06:53:58;7.32;;;2.70;;
59042;SDS011;44826;51.596;5.624;2024-03-23T06:56:23;10.05;;;2.78;;
59042;SDS011;44826;51.596;5.624;2024-03-23T06:58:49;6.85;;;2.42;;
59042;SDS011;44826;51.596;5.624;2024-03-23T07:01:14;7.55;;;2.60;;
59042;SDS011;44826;51.596;5.624;2024-03-23T07:03:39;7.20;;;2.45;;
59042;SDS011;44826;51.596;5.624;2024-03-23T07:06:05;8.75;;;2.50;;
59042;SDS011;44826;51.596;5.624;2024-03-23T07:08:30;7.97;;;2.42;;
59042;SDS011;44826;51.596;5.624;2024-03-23T07:10:55;9.70;;;2.80;;
59042;SDS011;44826;51.596;5.624;2024-03-23T07:13:21;9.73;;;2.67;;
59042;SDS011;44826;51.596;5.624;2024-03-23T07:15:51;8.05;;;2.45;;
59042;SDS011;44826;51.596;5.624;2024-03-23T07:18:17;7.80;;;2.30;;
59042;SDS011;44826;51.596;5.624;2024-03-23T07:20:42;7.22;;;2.10;;
59042;SDS011;44826;51.596;5.624;2024-03-23T07:23:07;5.53;;;1.80;;
59042;SDS011;44826;51.596;5.624;2024-03-23T07:25:33;8.20;;;1.73;;
59042;SDS011;44826;51.596;5.624;2024-03-23T07:27:58;5.45;;;1.90;;
59042;SDS011;44826;51.596;5.624;2024-03-23T07:30:24;5.38;;;1.55;;
59042;SDS011;44826;51.596;5.624;2024-03-23T07:32:49;8.55;;;1.85;;
59042;SDS011;44826;51.596;5.624;2024-03-23T07:35:15;8.02;;;1.70;;
59042;SDS011;44826;51.596;5.624;2024-03-23T07:37:41;6.15;;;1.60;;
59042;SDS011;44826;51.596;5.624;2024-03-23T07:40:07;3.88;;;1.45;;
59042;SDS011;44826;51.596;5.624;2024-03-23T07:42:32;5.28;;;1.30;;
59042;SDS011;44826;51.596;5.624;2024-03-23T07:44:58;6.53;;;1.48;;
59042;SDS011;44826;51.596;5.624;2024-03-23T07:47:23;5.93;;;1.35;;
59042;SDS011;44826;51.596;5.624;2024-03-23T07:49:48;6.68;;;1.25;;
59042;SDS011;44826;51.596;5.624;2024-03-23T07:52:14;4.15;;;1.40;;
59042;SDS011;44826;51.596;5.624;2024-03-23T07:54:39;8.30;;;1.48;;
59042;SDS011;44826;51.596;5.624;2024-03-23T07:57:04;7.47;;;1.65;;
59042;SDS011;44826;51.596;5.624;2024-03-23T07:59:31;4.13;;;1.58;;
59042;SDS011;44826;51.596;5.624;2024-03-23T08:01:57;5.78;;;1.70;;
59042;SDS011;44826;51.596;5.624;2024-03-23T08:04:22;7.40;;;2.10;;
59042;SDS011;44826;51.596;5.624;2024-03-23T08:06:47;4.43;;;1.88;;
59042;SDS011;44826;51.596;5.624;2024-03-23T08:09:12;5.43;;;1.88;;
59042;SDS011;44826;51.596;5.624;2024-03-23T08:11:38;7.47;;;1.80;;
59042;SDS011;44826;51.596;5.624;2024-03-23T08:14:04;7.43;;;2.28;;
59042;SDS011;44826;51.596;5.624;2024-03-23T08:16:29;8.07;;;2.05;;
59042;SDS011;44826;51.596;5.624;2024-03-23T08:18:55;8.27;;;2.03;;
59042;SDS011;44826;51.596;5.624;2024-03-23T08:21:21;6.32;;;1.90;;
59042;SDS011;44826;51.596;5.624;2024-03-23T08:23:46;7.80;;;1.95;;
59042;SDS011;44826;51.596;5.624;2024-03-23T08:26:12;9.07;;;1.70;;
59042;SDS011;44826;51.596;5.624;2024-03-23T08:28:39;7.07;;;1.70;;
59042;SDS011;44826;51.596;5.624;2024-03-23T08:31:08;7.00;;;1.40;;
59042;SDS011;44826;51.596;5.624;2024-03-23T08:33:35;6.22;;;1.58;;
59042;SDS011;44826;51.596;5.624;2024-03-23T08:36:07;7.55;;;1.70;;
59042;SDS011;44826;51.596;5.624;2024-03-23T08:38:34;6.22;;;1.58;;
59042;SDS011;44826;51.596;5.624;2024-03-23T08:43:27;6.30;;;1.67;;
59042;SDS011;44826;51.596;5.624;2024-03-23T08:45:53;6.68;;;1.70;;
59042;SDS011;44826;51.596;5.624;2024-03-23T08:48:19;6.35;;;1.60;;
59042;SDS011;44826;51.596;5.624;2024-03-23T08:50:46;8.20;;;1.55;;
59042;SDS011;44826;51.596;5.624;2024-03-23T08:53:11;7.75;;;1.90;;
59042;SDS011;44826;51.596;5.624;2024-03-23T08:55:37;7.95;;;1.70;;
59042;SDS011;44826;51.596;5.624;2024-03-23T08:58:02;7.03;;;1.58;;
59042;SDS011;44826;51.596;5.624;2024-03-23T09:00:29;10.70;;;1.73;;
59042;SDS011;44826;51.596;5.624;2024-03-23T09:02:54;7.28;;;1.50;;
59042;SDS011;44826;51.596;5.624;2024-03-23T09:05:20;7.80;;;1.52;;
59042;SDS011;44826;51.596;5.624;2024-03-23T09:07:46;6.72;;;1.40;;
59042;SDS011;44826;51.596;5.624;2024-03-23T09:10:11;6.63;;;1.40;;
59042;SDS011;44826;51.596;5.624;2024-03-23T09:12:36;8.48;;;1.90;;
59042;SDS011;44826;51.596;5.624;2024-03-23T09:15:02;5.25;;;1.10;;
59042;SDS011;44826;51.596;5.624;2024-03-23T09:17:27;4.55;;;1.10;;
59042;SDS011;44826;51.596;5.624;2024-03-23T09:19:53;6.38;;;1.10;;
59042;SDS011;44826;51.596;5.624;2024-03-23T09:22:18;5.88;;;1.13;;
59042;SDS011;44826;51.596;5.624;2024-03-23T09:24:43;5.28;;;1.00;;
59042;SDS011;44826;51.596;5.624;2024-03-23T09:27:08;3.85;;;1.00;;
59042;SDS011;44826;51.596;5.624;2024-03-23T09:29:34;5.53;;;1.00;;
59042;SDS011;44826;51.596;5.624;2024-03-23T09:31:59;4.70;;;0.90;;
59042;SDS011;44826;51.596;5.624;2024-03-23T09:34:24;5.20;;;1.00;;
59042;SDS011;44826;51.596;5.624;2024-03-23T09:36:51;5.13;;;1.40;;
59042;SDS011;44826;51.596;5.624;2024-03-23T09:39:16;2.97;;;0.70;;
59042;SDS011;44826;51.596;5.624;2024-03-23T09:41:42;4.18;;;0.90;;
59042;SDS011;44826;51.596;5.624;2024-03-23T09:44:07;3.55;;;0.98;;
59042;SDS011;44826;51.596;5.624;2024-03-23T09:46:33;4.70;;;0.95;;
59042;SDS011;44826;51.596;5.624;2024-03-23T09:49:01;3.78;;;1.10;;
59042;SDS011;44826;51.596;5.624;2024-03-23T09:51:29;3.83;;;1.10;;
59042;SDS011;44826;51.596;5.624;2024-03-23T09:53:55;5.03;;;0.90;;
59042;SDS011;44826;51.596;5.624;2024-03-23T09:56:21;7.15;;;1.33;;
59042;SDS011;44826;51.596;5.624;2024-03-23T09:58:46;4.55;;;1.10;;
59042;SDS011;44826;51.596;5.624;2024-03-23T10:01:11;4.75;;;1.02;;
59042;SDS011;44826;51.596;5.624;2024-03-23T10:03:46;6.13;;;0.98;;
59042;SDS011;44826;51.596;5.624;2024-03-23T10:06:11;8.25;;;1.40;;
59042;SDS011;44826;51.596;5.624;2024-03-23T10:08:36;4.78;;;1.10;;
59042;SDS011;44826;51.596;5.624;2024-03-23T10:11:15;4.13;;;1.13;;
59042;SDS011;44826;51.596;5.624;2024-03-23T10:13:42;6.13;;;1.35;;
59042;SDS011;44826;51.596;5.624;2024-03-23T10:16:08;5.00;;;1.20;;
59042;SDS011;44826;51.596;5.624;2024-03-23T10:18:38;3.58;;;1.05;;
59042;SDS011;44826;51.596;5.624;2024-03-23T10:21:07;5.65;;;1.30;;
59042;SDS011;44826;51.596;5.624;2024-03-23T10:26:20;9.45;;;1.67;;
59042;SDS011;44826;51.596;5.624;2024-03-23T10:28:57;5.40;;;0.90;;
59042;SDS011;44826;51.596;5.624;2024-03-23T10:31:25;3.10;;;0.90;;
59042;SDS011;44826;51.596;5.624;2024-03-23T10:33:51;5.88;;;1.48;;
59042;SDS011;44826;51.596;5.624;2024-03-23T10:36:19;5.60;;;1.00;;
59042;SDS011;44826;51.596;5.624;2024-03-23T10:38:45;6.60;;;1.30;;
59042;SDS011;44826;51.596;5.624;2024-03-23T10:41:11;5.97;;;1.02;;
59042;SDS011;44826;51.596;5.624;2024-03-23T10:43:37;5.47;;;1.30;;
59042;SDS011;44826;51.596;5.624;2024-03-23T10:46:04;3.35;;;0.90;;
59042;SDS011;44826;51.596;5.624;2024-03-23T10:48:30;5.65;;;1.20;;
59042;SDS011;44826;51.596;5.624;2024-03-23T10:50:56;2.97;;;1.10;;
59042;SDS011;44826;51.596;5.624;2024-03-23T10:53:22;3.10;;;0.82;;
59042;SDS011;44826;51.596;5.624;2024-03-23T10:55:51;4.95;;;0.88;;
59042;SDS011;44826;51.596;5.624;2024-03-23T10:58:26;6.07;;;0.90;;
59042;SDS011;44826;51.596;5.624;2024-03-23T11:01:12;3.78;;;0.82;;
59042;SDS011;44826;51.596;5.624;2024-03-23T11:03:38;5.80;;;0.90;;
59042;SDS011;44826;51.596;5.624;2024-03-23T11:06:09;4.80;;;0.90;;
59042;SDS011;44826;51.596;5.624;2024-03-23T11:08:36;4.72;;;0.80;;
59042;SDS011;44826;51.596;5.624;2024-03-23T11:11:21;3.42;;;0.90;;
59042;SDS011;44826;51.596;5.624;2024-03-23T11:13:48;3.40;;;1.10;;
59042;SDS011;44826;51.596;5.624;2024-03-23T11:18:54;4.80;;;1.10;;
59042;SDS011;44826;51.596;5.624;2024-03-23T11:21:58;3.38;;;0.77;;
59042;SDS011;44826;51.596;5.624;2024-03-23T11:24:23;3.10;;;0.82;;
59042;SDS011;44826;51.596;5.624;2024-03-23T11:26:49;4.65;;;1.20;;
59042;SDS011;44826;51.596;5.624;2024-03-23T11:29:15;4.90;;;1.08;;
59042;SDS011;44826;51.596;5.624;2024-03-23T11:31:49;5.28;;;1.20;;
59042;SDS011;44826;51.596;5.624;2024-03-23T11:34:18;5.28;;;0.90;;
59042;SDS011;44826;51.596;5.624;2024-03-23T11:36:44;3.47;;;0.80;;
59042;SDS011;44826;51.596;5.624;2024-03-23T11:39:14;1.35;;;0.52;;
59042;SDS011;44826;51.596;5.624;2024-03-23T11:41:56;2.33;;;0.60;;
59042;SDS011;44826;51.596;5.624;2024-03-23T11:44:23;4.18;;;0.90;;
59042;SDS011;44826;51.596;5.624;2024-03-23T11:46:50;1.67;;;0.63;;
59042;SDS011;44826;51.596;5.624;2024-03-23T11:49:27;3.05;;;0.82;;
59042;SDS011;44826;51.596;5.624;2024-03-23T11:51:54;2.92;;;0.60;;
59042;SDS011;44826;51.596;5.624;2024-03-23T11:54:21;3.00;;;0.80;;
59042;SDS011;44826;51.596;5.624;2024-03-23T11:56:54;2.55;;;0.70;;
59042;SDS011;44826;51.596;5.624;2024-03-23T11:59:36;3.47;;;0.75;;
59042;SDS011;44826;51.596;5.624;2024-03-23T12:02:06;4.75;;;1.00;;
59042;SDS011;44826;51.596;5.624;2024-03-23T12:04:32;2.53;;;0.98;;
59042;SDS011;44826;51.596;5.624;2024-03-23T12:07:12;2.72;;;0.88;;
59042;SDS011;44826;51.596;5.624;2024-03-23T12:09:38;3.17;;;0.70;;
59042;SDS011;44826;51.596;5.624;2024-03-23T12:12:11;3.22;;;0.70;;
59042;SDS011;44826;51.596;5.624;2024-03-23T12:14:40;4.30;;;0.70;;
59042;SDS011;44826;51.596;5.624;2024-03-23T12:17:13;3.22;;;0.60;;
59042;SDS011;44826;51.596;5.624;2024-03-23T12:19:40;3.33;;;0.70;;
59042;SDS011;44826;51.596;5.624;2024-03-23T12:22:06;2.22;;;0.60;;
59042;SDS011;44826;51.596;5.624;2024-03-23T12:24:34;3.80;;;0.98;;
59042;SDS011;44826;51.596;5.624;2024-03-23T12:27:01;2.38;;;0.60;;
59042;SDS011;44826;51.596;5.624;2024-03-23T12:29:30;3.20;;;0.70;;
59042;SDS011;44826;51.596;5.624;2024-03-23T12:31:59;3.85;;;0.80;;
59042;SDS011;44826;51.596;5.624;2024-03-23T12:34:25;3.50;;;0.70;;
59042;SDS011;44826;51.596;5.624;2024-03-23T12:36:51;3.05;;;0.63;;
59042;SDS011;44826;51.596;5.624;2024-03-23T12:39:16;3.28;;;0.88;;
59042;SDS011;44826;51.596;5.624;2024-03-23T12:41:42;2.97;;;0.77;;
59042;SDS011;44826;51.596;5.624;2024-03-23T12:44:07;6.18;;;1.20;;
59042;SDS011;44826;51.596;5.624;2024-03-23T12:46:36;6.32;;;1.25;;
59042;SDS011;44826;51.596;5.624;2024-03-23T12:49:02;5.47;;;0.82;;
59042;SDS011;44826;51.596;5.624;2024-03-23T12:51:28;4.78;;;1.05;;
59042;SDS011;44826;51.596;5.624;2024-03-23T12:53:53;5.22;;;1.10;;
59042;SDS011;44826;51.596;5.624;2024-03-23T12:56:19;5.00;;;1.23;;
59042;SDS011;44826;51.596;5.624;2024-03-23T12:58:44;6.18;;;1.08;;
59042;SDS011;44826;51.596;5.624;2024-03-23T13:01:09;4.05;;;1.00;;
59042;SDS011;44826;51.596;5.624;2024-03-23T13:03:35;5.15;;;0.73;;
59042;SDS011;44826;51.596;5.624;2024-03-23T13:06:00;8.32;;;0.90;;
59042;SDS011;44826;51.596;5.624;2024-03-23T13:08:25;3.88;;;0.90;;
59042;SDS011;44826;51.596;5.624;2024-03-23T13:10:53;3.08;;;0.85;;
59042;SDS011;44826;51.596;5.624;2024-03-23T13:13:20;2.63;;;0.80;;
59042;SDS011;44826;51.596;5.624;2024-03-23T13:15:49;5.13;;;0.90;;
59042;SDS011;44826;51.596;5.624;2024-03-23T13:18:15;5.45;;;0.90;;
59042;SDS011;44826;51.596;5.624;2024-03-23T13:20:41;2.88;;;0.85;;
59042;SDS011;44826;51.596;5.624;2024-03-23T13:23:06;5.15;;;0.80;;
59042;SDS011;44826;51.596;5.624;2024-03-23T13:25:31;2.90;;;0.73;;
59042;SDS011;44826;51.596;5.624;2024-03-23T13:27:58;4.70;;;1.02;;
59042;SDS011;44826;51.596;5.624;2024-03-23T13:30:23;3.58;;;0.88;;
59042;SDS011;44826;51.596;5.624;2024-03-23T13:32:48;4.68;;;1.00;;
59042;SDS011;44826;51.596;5.624;2024-03-23T13:35:14;3.42;;;0.85;;
59042;SDS011;44826;51.596;5.624;2024-03-23T13:37:39;3.63;;;0.88;;
59042;SDS011;44826;51.596;5.624;2024-03-23T13:40:05;2.63;;;0.82;;
59042;SDS011;44826;51.596;5.624;2024-03-23T13:42:31;3.58;;;0.80;;
59042;SDS011;44826;51.596;5.624;2024-03-23T13:44:57;3.83;;;0.80;;
59042;SDS011;44826;51.596;5.624;2024-03-23T13:47:22;3.67;;;0.88;;
59042;SDS011;44826;51.596;5.624;2024-03-23T13:49:47;7.90;;;1.10;;
59042;SDS011;44826;51.596;5.624;2024-03-23T13:52:14;3.47;;;0.65;;
59042;SDS011;44826;51.596;5.624;2024-03-23T13:54:39;3.72;;;0.80;;
59042;SDS011;44826;51.596;5.624;2024-03-23T13:57:10;6.03;;;1.00;;
59042;SDS011;44826;51.596;5.624;2024-03-23T13:59:35;4.43;;;1.05;;
59042;SDS011;44826;51.596;5.624;2024-03-23T14:02:01;4.50;;;0.98;;
59042;SDS011;44826;51.596;5.624;2024-03-23T14:04:26;4.15;;;0.80;;
59042;SDS011;44826;51.596;5.624;2024-03-23T14:06:52;2.92;;;0.80;;
59042;SDS011;44826;51.596;5.624;2024-03-23T14:09:17;3.78;;;1.00;;
59042;SDS011;44826;51.596;5.624;2024-03-23T14:11:47;3.78;;;0.90;;
59042;SDS011;44826;51.596;5.624;2024-03-23T14:14:13;5.15;;;0.80;;
59042;SDS011;44826;51.596;5.624;2024-03-23T14:16:41;4.68;;;0.90;;
59042;SDS011;44826;51.596;5.624;2024-03-23T14:19:07;2.53;;;0.63;;
59042;SDS011;44826;51.596;5.624;2024-03-23T14:21:32;6.50;;;1.02;;
59042;SDS011;44826;51.596;5.624;2024-03-23T14:23:59;5.22;;;0.90;;
59042;SDS011;44826;51.596;5.624;2024-03-23T14:26:25;5.65;;;0.85;;
59042;SDS011;44826;51.596;5.624;2024-03-23T14:28:51;3.38;;;1.15;;
59042;SDS011;44826;51.596;5.624;2024-03-23T14:31:16;4.10;;;0.90;;
59042;SDS011;44826;51.596;5.624;2024-03-23T14:33:42;4.47;;;0.85;;
59042;SDS011;44826;51.596;5.624;2024-03-23T14:36:12;6.85;;;0.80;;
59042;SDS011;44826;51.596;5.624;2024-03-23T14:38:38;3.28;;;0.75;;
59042;SDS011;44826;51.596;5.624;2024-03-23T14:41:03;6.55;;;1.02;;
59042;SDS011;44826;51.596;5.624;2024-03-23T14:43:29;4.93;;;1.00;;
59042;SDS011;44826;51.596;5.624;2024-03-23T14:46:11;4.80;;;1.00;;
59042;SDS011;44826;51.596;5.624;2024-03-23T14:48:38;5.72;;;1.23;;
59042;SDS011;44826;51.596;5.624;2024-03-23T14:51:04;3.58;;;0.95;;
59042;SDS011;44826;51.596;5.624;2024-03-23T14:53:30;3.00;;;0.80;;
59042;SDS011;44826;51.596;5.624;2024-03-23T14:56:00;2.88;;;0.60;;
59042;SDS011;44826;51.596;5.624;2024-03-23T14:58:27;3.92;;;0.70;;
59042;SDS011;44826;51.596;5.624;2024-03-23T15:00:53;2.75;;;0.60;;
59042;SDS011;44826;51.596;5.624;2024-03-23T15:05:51;3.67;;;0.77;;
59042;SDS011;44826;51.596;5.624;2024-03-23T15:08:21;6.30;;;0.95;;
59042;SDS011;44826;51.596;5.624;2024-03-23T15:10:46;2.20;;;0.70;;
59042;SDS011;44826;51.596;5.624;2024-03-23T15:13:11;2.58;;;0.60;;
59042;SDS011;44826;51.596;5.624;2024-03-23T15:15:38;3.25;;;0.90;;
59042;SDS011;44826;51.596;5.624;2024-03-23T15:18:05;2.95;;;0.82;;
59042;SDS011;44826;51.596;5.624;2024-03-23T15:20:31;5.07;;;0.80;;
59042;SDS011;44826;51.596;5.624;2024-03-23T15:22:58;3.30;;;0.65;;
59042;SDS011;44826;51.596;5.624;2024-03-23T15:25:24;2.58;;;0.70;;
59042;SDS011;44826;51.596;5.624;2024-03-23T15:27:49;4.43;;;0.70;;
59042;SDS011;44826;51.596;5.624;2024-03-23T15:30:14;3.13;;;0.80;;
59042;SDS011;44826;51.596;5.624;2024-03-23T15:32:40;2.10;;;0.65;;
59042;SDS011;44826;51.596;5.624;2024-03-23T15:35:05;2.20;;;0.50;;
59042;SDS011;44826;51.596;5.624;2024-03-23T15:37:32;3.08;;;0.40;;
59042;SDS011;44826;51.596;5.624;2024-03-23T15:39:59;3.60;;;0.68;;
59042;SDS011;44826;51.596;5.624;2024-03-23T15:42:24;2.83;;;0.60;;
59042;SDS011;44826;51.596;5.624;2024-03-23T15:44:50;1.60;;;0.60;;
59042;SDS011;44826;51.596;5.624;2024-03-23T15:47:15;4.55;;;0.70;;